createdAt,value
2023-03-13T00:00:32.265Z,9.8
2023-03-13T00:05:28.907Z,9.8
2023-03-13T00:10:25.340Z,9.8
2023-03-13T00:16:36.058Z,9.9
2023-03-13T00:21:32.537Z,10
2023-03-13T00:26:29.067Z,9.9
2023-03-13T00:31:25.758Z,10
2023-03-13T00:37:36.447Z,10
2023-03-13T00:42:32.779Z,10
2023-03-13T00:47:29.400Z,9.9
2023-03-13T00:52:25.854Z,9.9
2023-03-13T00:58:36.601Z,9.7
2023-03-13T01:03:33.162Z,9.4
2023-03-13T01:08:29.551Z,9.2
2023-03-13T01:13:26.194Z,9.1
2023-03-13T01:19:36.939Z,9.3
2023-03-13T01:24:33.326Z,9.2
2023-03-13T01:29:29.864Z,9.2
2023-03-13T01:34:26.408Z,8.9
2023-03-13T01:40:37.046Z,8.9
2023-03-13T01:45:33.687Z,8.8
2023-03-13T01:50:30.117Z,8.7
2023-03-13T01:55:26.670Z,8.7
2023-03-13T02:01:37.280Z,8.6
2023-03-13T02:06:33.836Z,8.6
2023-03-13T02:11:30.357Z,8.8
2023-03-13T02:16:26.984Z,8.7
2023-03-13T02:22:37.542Z,8.9
2023-03-13T02:27:34.173Z,9.1
2023-03-13T02:32:30.771Z,9.1
2023-03-13T02:37:27.262Z,9.1
2023-03-13T02:43:37.836Z,9.3
2023-03-13T02:48:34.352Z,9.6
2023-03-13T02:53:30.933Z,9.7
2023-03-13T02:58:27.682Z,9.6
2023-03-13T03:04:38.111Z,9.5
2023-03-13T03:09:34.763Z,9.5
2023-03-13T03:14:31.162Z,9.3
2023-03-13T03:19:27.701Z,9.6
2023-03-13T03:24:24.278Z,9.6
2023-03-13T03:30:34.950Z,9.7
2023-03-13T03:35:31.498Z,9.8
2023-03-13T03:40:27.954Z,10
2023-03-13T03:45:24.506Z,10.1
2023-03-13T03:51:35.200Z,10.2
2023-03-13T03:56:31.676Z,10.2
2023-03-13T04:01:28.302Z,10.3
2023-03-13T04:06:24.739Z,10.3
2023-03-13T04:12:35.456Z,10.4
2023-03-13T04:22:28.538Z,10.5
2023-03-13T04:27:25.007Z,10.6
2023-03-13T04:33:35.768Z,10.6
2023-03-13T04:38:32.209Z,10.6
2023-03-13T04:43:28.779Z,10.6
2023-03-13T04:54:36.050Z,10.6
2023-03-13T04:59:32.498Z,10.7
2023-03-13T05:04:29.017Z,10.8
2023-03-13T05:08:11.387Z,10.8
2023-03-13T05:09:25.560Z,10.9
2023-03-13T05:15:36.297Z,10.9
2023-03-13T05:20:32.754Z,11
2023-03-13T05:25:29.270Z,11
2023-03-13T05:30:25.830Z,11.1
2023-03-13T05:36:36.728Z,11.2
2023-03-13T05:41:32.991Z,11.3
2023-03-13T05:46:29.569Z,11.3
2023-03-13T05:51:26.084Z,11.3
2023-03-13T05:57:36.757Z,11.4
2023-03-13T06:02:33.294Z,11.5
2023-03-13T06:07:29.928Z,11.5
2023-03-13T06:12:26.310Z,11.6
2023-03-13T06:18:37.035Z,11.7
2023-03-13T06:23:33.614Z,11.8
2023-03-13T06:28:30.029Z,11.9
2023-03-13T06:33:26.649Z,12
2023-03-13T06:39:37.290Z,12
2023-03-13T06:44:33.817Z,12.1
2023-03-13T06:49:30.544Z,12.2
2023-03-13T06:54:26.939Z,12.3
2023-03-13T07:00:37.529Z,12.3
2023-03-13T07:05:34.067Z,12.3
2023-03-13T07:10:30.612Z,12.3
2023-03-13T07:15:27.180Z,12.3
2023-03-13T07:21:37.762Z,12.4
2023-03-13T07:26:34.393Z,12.4
2023-03-13T07:31:30.880Z,12.5
2023-03-13T07:36:27.459Z,12.5
2023-03-13T07:42:38.007Z,12.6
2023-03-13T07:47:34.548Z,12.8
2023-03-13T07:52:31.104Z,12.8
2023-03-13T07:57:27.669Z,13
2023-03-13T08:03:38.388Z,13.3
2023-03-13T08:08:34.807Z,13.5
2023-03-13T08:13:31.318Z,13.3
2023-03-13T08:18:27.904Z,13.5
2023-03-13T08:23:24.460Z,13.6
2023-03-13T08:29:35.095Z,13.4
2023-03-13T08:34:31.631Z,13.2
2023-03-13T08:39:28.258Z,13.3
2023-03-13T08:44:24.736Z,13.4
2023-03-13T08:50:35.436Z,13.4
2023-03-13T08:55:31.903Z,13.5
2023-03-13T09:00:28.506Z,13.5
2023-03-13T09:05:25.046Z,13.6
2023-03-13T09:11:35.691Z,13.5
2023-03-13T09:16:32.156Z,13.6
2023-03-13T09:21:28.746Z,13.7
2023-03-13T09:32:35.996Z,13.7
2023-03-13T09:37:32.428Z,13.7
2023-03-13T09:42:28.953Z,13.6
2023-03-13T09:47:25.464Z,13.6
2023-03-13T09:53:36.329Z,13.6
2023-03-13T09:58:32.788Z,13.5
2023-03-13T10:03:29.206Z,13.3
2023-03-13T10:08:25.823Z,13.2
2023-03-13T10:14:36.426Z,13.2
2023-03-13T10:19:33.024Z,13.2
2023-03-13T10:24:29.483Z,13.4
2023-03-13T10:29:26.128Z,13.4
2023-03-13T10:35:36.893Z,13.6
2023-03-13T10:40:33.231Z,13.4
2023-03-13T10:45:29.742Z,13.4
2023-03-13T10:56:37.027Z,13.5
2023-03-13T11:01:33.462Z,13.5
2023-03-13T11:06:29.963Z,13.8
2023-03-13T11:11:26.536Z,13.7
2023-03-13T11:17:37.330Z,14.1
2023-03-13T11:22:33.839Z,14.2
2023-03-13T11:27:30.382Z,14.2
2023-03-13T11:32:26.861Z,14.1
2023-03-13T11:38:37.554Z,14.4
2023-03-13T11:43:34.110Z,14.7
2023-03-13T11:48:30.530Z,14.5
2023-03-13T11:53:27.057Z,14.8
2023-03-13T11:59:37.762Z,15.3
2023-03-13T12:04:34.315Z,15.3
2023-03-13T12:09:30.792Z,15.3
2023-03-13T12:14:27.410Z,15.4
2023-03-13T12:20:37.963Z,15.3
2023-03-13T12:25:34.613Z,15.4
2023-03-13T12:30:31.061Z,15.2
2023-03-13T12:35:27.660Z,15.4
2023-03-13T12:41:38.195Z,15.2
2023-03-13T12:46:34.925Z,15.4
2023-03-13T12:51:31.263Z,15.2
2023-03-13T12:56:28.001Z,15.3
2023-03-13T13:01:24.551Z,15.3
2023-03-13T13:07:35.130Z,15.2
2023-03-13T13:12:31.619Z,14.9
2023-03-13T13:17:28.246Z,15
2023-03-13T13:22:24.821Z,14.6
2023-03-13T13:28:35.359Z,14.6
2023-03-13T13:33:31.863Z,14.8
2023-03-13T13:38:28.373Z,15.3
2023-03-13T13:43:25.034Z,16.9
2023-03-13T13:49:35.575Z,16.9
2023-03-13T13:54:32.111Z,15.6
2023-03-13T13:59:28.618Z,15.3
2023-03-13T14:04:25.270Z,15.2
2023-03-13T14:10:35.900Z,15.1
2023-03-13T14:15:32.377Z,15.4
2023-03-13T14:20:28.905Z,15.5
2023-03-13T14:25:25.504Z,15.4
2023-03-13T14:31:36.248Z,15.1
2023-03-13T14:36:32.791Z,14.3
2023-03-13T14:41:29.208Z,14.6
2023-03-13T14:46:25.889Z,15
2023-03-13T14:52:36.358Z,15
2023-03-13T14:57:32.949Z,14.9
2023-03-13T15:02:29.427Z,14.7
2023-03-13T15:07:26.043Z,14.8
2023-03-13T15:13:36.733Z,15
2023-03-13T15:18:33.179Z,15.1
2023-03-13T15:23:29.705Z,15.3
2023-03-13T15:34:37.021Z,16.2
2023-03-13T15:39:33.433Z,16.5
2023-03-13T15:44:29.954Z,16
2023-03-13T15:49:26.513Z,15.8
2023-03-13T15:55:37.189Z,15.6
2023-03-13T16:00:33.811Z,16.4
2023-03-13T16:05:30.187Z,18.2
2023-03-13T16:10:26.770Z,19.3
2023-03-13T16:16:38.143Z,16.2
2023-03-13T16:21:33.978Z,16.3
2023-03-13T16:26:30.439Z,19.5
2023-03-13T16:31:27.326Z,20.6
2023-03-13T16:37:37.757Z,22.1
2023-03-13T16:42:34.341Z,21.7
2023-03-13T16:47:30.708Z,17
2023-03-13T16:52:27.366Z,16
2023-03-13T16:58:37.926Z,15.3
2023-03-13T17:03:34.467Z,15
2023-03-13T17:08:30.992Z,14.8
2023-03-13T17:13:27.597Z,14.6
2023-03-13T17:18:24.069Z,14.5
2023-03-13T17:24:34.800Z,14.5
2023-03-13T17:29:31.216Z,14.4
2023-03-13T17:34:27.843Z,14.4
2023-03-13T17:39:24.361Z,14.3
2023-03-13T17:45:35.037Z,14.3
2023-03-13T17:50:31.469Z,14
2023-03-13T17:55:28.044Z,14.1
2023-03-13T18:00:24.584Z,13.7
2023-03-13T18:06:35.266Z,13.7
2023-03-13T18:11:31.838Z,13.3
2023-03-13T18:16:28.449Z,13.8
2023-03-13T18:22:38.978Z,13.7
2023-03-13T18:27:35.621Z,13.7
2023-03-13T18:37:28.577Z,13.7
2023-03-13T18:42:25.276Z,13.7
2023-03-13T18:48:35.768Z,13.7
2023-03-13T18:53:32.326Z,13.6
2023-03-13T18:58:28.828Z,13.7
2023-03-13T19:03:25.475Z,13.6
2023-03-13T19:09:43.713Z,13.5
2023-03-13T19:14:32.565Z,13.4
2023-03-13T19:19:29.105Z,13.3
2023-03-13T19:24:25.664Z,13.3
2023-03-13T19:30:36.333Z,13.2
2023-03-13T19:35:32.873Z,13.1
2023-03-13T19:40:29.380Z,13
2023-03-13T19:45:26.085Z,12.7
2023-03-13T19:51:36.562Z,12.4
2023-03-13T19:56:33.117Z,12.4
2023-03-13T20:01:29.731Z,12.3
2023-03-13T20:06:26.227Z,12.2
2023-03-13T20:12:36.817Z,12.1
2023-03-13T20:17:33.378Z,12
2023-03-13T20:22:29.909Z,12
2023-03-13T20:27:26.442Z,11.8
2023-03-13T20:33:37.319Z,11.7
2023-03-13T20:38:33.635Z,11.8
2023-03-13T20:43:30.169Z,11.8
2023-03-13T20:48:26.714Z,11.8
2023-03-13T20:54:37.485Z,11.6
2023-03-13T20:59:33.873Z,11.7
2023-03-13T21:04:30.401Z,11.7
2023-03-13T21:09:26.940Z,11.6
2023-03-13T21:15:37.732Z,11.5
2023-03-13T21:20:34.129Z,11.4
2023-03-13T21:25:30.654Z,11.2
2023-03-13T21:30:27.275Z,11.3
2023-03-13T21:36:38.033Z,11.1
2023-03-13T21:41:34.413Z,11.2
2023-03-13T21:46:30.967Z,11.3
2023-03-13T21:51:27.527Z,11.2
2023-03-13T21:56:23.996Z,11.2
2023-03-13T22:02:34.757Z,11.1
2023-03-13T22:07:31.190Z,11
2023-03-13T22:12:27.789Z,11.1
2023-03-13T22:18:38.362Z,11.1
2023-03-13T22:23:35.008Z,11
2023-03-13T22:28:31.438Z,10.8
2023-03-13T22:33:28.108Z,10.8
2023-03-13T22:38:24.520Z,10.8
2023-03-13T22:44:35.220Z,10.8
2023-03-13T22:49:31.705Z,10.6
2023-03-13T22:54:28.235Z,10.7
2023-03-13T22:59:24.858Z,10.6
2023-03-13T23:05:35.471Z,10.5
2023-03-13T23:15:33.435Z,10.6
2023-03-13T23:20:25.119Z,10.7
2023-03-13T23:26:35.745Z,10.7
2023-03-13T23:31:32.252Z,10.7
2023-03-13T23:36:28.793Z,10.6
2023-03-13T23:47:36.044Z,10.6
2023-03-13T23:52:32.549Z,10.9
2023-03-13T23:57:29.029Z,10.9
